createdAt,value
2018-10-06T00:00:51.069Z,66.40
2018-10-06T00:03:21.168Z,66.40
2018-10-06T00:05:51.413Z,66.50
2018-10-06T00:08:22.679Z,66.50
2018-10-06T00:10:57.311Z,66.30
2018-10-06T00:13:30.335Z,66.40
2018-10-06T00:16:01.717Z,66.40
2018-10-06T00:18:31.828Z,66.50
2018-10-06T00:21:02.023Z,66.60
2018-10-06T00:23:36.330Z,66.40
2018-10-06T00:26:12.144Z,67.10
2018-10-06T00:28:42.462Z,66.60
2018-10-06T00:31:13.560Z,66.60
2018-10-06T00:33:43.619Z,66.60
2018-10-06T00:36:14.034Z,66.60
2018-10-06T00:41:27.654Z,66.60
2018-10-06T00:43:57.729Z,66.60
2018-10-06T00:46:27.305Z,66.60
2018-10-06T00:49:00.888Z,66.60
2018-10-06T00:51:34.916Z,66.70
2018-10-06T00:54:05.006Z,66.80
2018-10-06T00:56:39.792Z,66.70
2018-10-06T00:59:12.643Z,66.90
2018-10-06T01:01:43.131Z,66.90
2018-10-06T01:04:14.115Z,67.00
2018-10-06T01:06:46.696Z,67.10
2018-10-06T01:09:18.396Z,67.10
2018-10-06T01:11:51.468Z,67.30
2018-10-06T01:14:25.770Z,67.30
2018-10-06T01:17:01.990Z,67.30
2018-10-06T01:19:32.393Z,67.60
2018-10-06T01:22:07.027Z,67.70
2018-10-06T01:24:40.793Z,67.80
2018-10-06T01:27:29.026Z,67.90
2018-10-06T01:30:03.043Z,68.00
2018-10-06T01:32:34.809Z,68.00
2018-10-06T01:35:05.371Z,68.20
2018-10-06T01:37:34.609Z,68.30
2018-10-06T01:40:04.823Z,68.40
2018-10-06T01:42:36.365Z,68.60
2018-10-06T01:45:08.963Z,68.60
2018-10-06T01:47:46.925Z,68.70
2018-10-06T01:52:51.440Z,69.00
2018-10-06T01:55:22.822Z,69.10
2018-10-06T01:58:18.666Z,69.20
2018-10-06T02:00:54.309Z,69.40
2018-10-06T02:03:29.335Z,69.40
2018-10-06T02:05:58.740Z,69.50
2018-10-06T02:08:47.124Z,69.70
2018-10-06T02:11:18.708Z,69.80
2018-10-06T02:13:49.720Z,69.80
2018-10-06T02:16:20.480Z,69.80
2018-10-06T02:18:54.987Z,70.10
2018-10-06T02:21:29.000Z,70.20
2018-10-06T02:24:02.087Z,70.30
2018-10-06T02:26:36.272Z,70.40
2018-10-06T02:29:09.231Z,70.30
2018-10-06T02:31:37.935Z,70.40
2018-10-06T02:34:07.929Z,70.50
2018-10-06T02:36:48.429Z,70.60
2018-10-06T02:39:26.083Z,70.60
2018-10-06T02:41:57.553Z,70.60
2018-10-06T02:44:32.648Z,70.60
2018-10-06T02:47:12.846Z,70.80
2018-10-06T02:49:42.400Z,70.90
2018-10-06T02:52:12.567Z,70.80
2018-10-06T02:54:43.043Z,71.00
2018-10-06T02:57:51.724Z,71.00
2018-10-06T03:00:21.431Z,71.10
2018-10-06T03:02:51.366Z,71.10
2018-10-06T03:05:20.455Z,71.20
2018-10-06T03:07:50.719Z,71.30
2018-10-06T03:10:21.921Z,71.50
2018-10-06T03:12:54.269Z,71.50
2018-10-06T03:15:23.589Z,71.60
2018-10-06T03:18:07.451Z,71.60
2018-10-06T03:20:38.196Z,71.70
2018-10-06T03:23:08.014Z,71.60
2018-10-06T03:25:39.364Z,71.60
2018-10-06T03:28:09.746Z,71.60
2018-10-06T03:30:44.399Z,71.60
2018-10-06T03:33:15.989Z,71.60
2018-10-06T03:35:46.053Z,71.70
2018-10-06T03:38:15.708Z,71.70
2018-10-06T03:40:45.839Z,71.90
2018-10-06T03:43:15.470Z,71.80
2018-10-06T03:45:47.913Z,71.70
2018-10-06T03:48:17.212Z,71.80
2018-10-06T03:50:47.193Z,71.80
2018-10-06T03:53:18.538Z,71.70
2018-10-06T03:55:48.378Z,71.70
2018-10-06T03:58:20.052Z,71.80
2018-10-06T04:00:53.126Z,71.80
2018-10-06T04:03:22.991Z,71.80
2018-10-06T04:05:54.789Z,71.70
2018-10-06T04:08:29.694Z,71.80
2018-10-06T04:10:58.720Z,71.90
2018-10-06T04:13:28.280Z,71.80
2018-10-06T04:16:02.748Z,71.90
2018-10-06T04:21:54.435Z,71.90
2018-10-06T04:24:27.477Z,71.80
2018-10-06T04:27:08.767Z,71.80
2018-10-06T04:29:37.987Z,71.80
2018-10-06T04:32:08.033Z,71.80
2018-10-06T04:34:37.883Z,71.90
2018-10-06T04:37:09.767Z,72.00
2018-10-06T04:39:40.591Z,72.00
2018-10-06T04:42:14.512Z,71.90
2018-10-06T04:44:44.525Z,71.90
2018-10-06T04:47:15.651Z,71.80
2018-10-06T04:49:50.087Z,71.70
2018-10-06T04:52:21.989Z,71.70
2018-10-06T04:54:51.893Z,71.70
2018-10-06T04:57:23.135Z,71.60
2018-10-06T04:59:53.290Z,71.60
2018-10-06T05:02:24.821Z,71.60
2018-10-06T05:04:58.535Z,71.60
2018-10-06T05:07:27.738Z,71.80
2018-10-06T05:10:01.921Z,71.80
2018-10-06T05:12:32.486Z,71.60
2018-10-06T05:15:03.708Z,71.80
2018-10-06T05:21:15.668Z,71.80
2018-10-06T05:23:47.345Z,71.70
2018-10-06T05:26:16.953Z,71.60
2018-10-06T05:29:11.024Z,71.60
2018-10-06T05:31:40.380Z,71.60
2018-10-06T05:34:10.463Z,71.60
2018-10-06T05:36:39.576Z,71.60
2018-10-06T05:39:12.409Z,71.60
2018-10-06T05:41:41.059Z,71.50
2018-10-06T05:44:09.642Z,71.40
2018-10-06T05:47:03.249Z,71.40
2018-10-06T05:49:33.344Z,71.40
2018-10-06T05:52:02.034Z,71.20
2018-10-06T05:54:32.022Z,71.30
2018-10-06T05:57:03.804Z,71.40
2018-10-06T05:59:36.849Z,71.30
2018-10-06T06:02:06.517Z,71.40
2018-10-06T06:04:35.377Z,71.30
2018-10-06T06:07:20.140Z,71.40
2018-10-06T06:09:50.299Z,71.50
2018-10-06T06:12:21.757Z,72.00
2018-10-06T06:14:52.899Z,71.40
2018-10-06T06:17:21.954Z,72.00
2018-10-06T06:19:51.577Z,71.50
2018-10-06T06:22:23.111Z,71.50
2018-10-06T06:24:52.613Z,71.50
2018-10-06T06:27:22.495Z,71.60
2018-10-06T06:29:52.611Z,71.60
2018-10-06T06:32:22.729Z,72.10
2018-10-06T06:34:56.525Z,71.40
2018-10-06T06:40:29.320Z,70.80
2018-10-06T06:43:02.355Z,70.30
2018-10-06T06:45:32.475Z,70.00
2018-10-06T06:48:08.131Z,69.60
2018-10-06T06:50:39.180Z,69.40
2018-10-06T06:53:08.723Z,69.10
2018-10-06T06:55:38.043Z,68.80
2018-10-06T06:58:13.230Z,68.60
2018-10-06T07:00:46.604Z,69.10
2018-10-06T07:03:17.216Z,68.10
2018-10-06T07:05:48.301Z,68.00
2018-10-06T07:11:10.386Z,67.80
2018-10-06T07:13:40.480Z,67.60
2018-10-06T07:16:15.383Z,67.40
2018-10-06T07:18:48.295Z,67.30
2018-10-06T07:21:18.046Z,67.20
2018-10-06T07:23:50.470Z,66.90
2018-10-06T07:26:26.344Z,66.50
2018-10-06T07:29:27.147Z,66.50
2018-10-06T07:31:57.977Z,66.40
2018-10-06T07:34:32.819Z,66.30
2018-10-06T07:37:02.849Z,66.20
2018-10-06T07:39:39.707Z,65.90
2018-10-06T07:42:13.688Z,65.80
2018-10-06T07:44:46.031Z,65.80
2018-10-06T07:50:09.280Z,65.60
2018-10-06T07:52:43.952Z,65.40
2018-10-06T07:55:17.817Z,65.60
2018-10-06T07:57:53.545Z,65.60
2018-10-06T08:00:29.482Z,65.50
2018-10-06T08:03:02.675Z,65.60
2018-10-06T08:05:39.088Z,65.50
2018-10-06T08:08:08.907Z,65.30
2018-10-06T08:10:46.623Z,65.00
2018-10-06T08:13:22.641Z,64.90
2018-10-06T08:16:07.215Z,65.00
2018-10-06T08:18:44.662Z,64.80
2018-10-06T08:21:16.056Z,64.90
2018-10-06T08:23:47.713Z,64.70
2018-10-06T08:26:20.547Z,64.50
2018-10-06T08:28:50.711Z,64.20
2018-10-06T08:31:20.592Z,64.00
2018-10-06T08:33:52.227Z,63.80
2018-10-06T08:36:22.789Z,63.70
2018-10-06T08:38:55.716Z,63.50
2018-10-06T08:41:28.324Z,63.50
2018-10-06T08:44:06.059Z,63.30
2018-10-06T08:46:51.001Z,63.30
2018-10-06T08:49:20.727Z,62.90
2018-10-06T08:51:55.322Z,62.90
2018-10-06T08:54:31.558Z,62.90
2018-10-06T08:57:06.033Z,62.80
2018-10-06T08:59:35.820Z,62.70
2018-10-06T09:02:11.917Z,62.60
2018-10-06T09:04:48.171Z,62.30
2018-10-06T09:07:37.582Z,62.20
2018-10-06T09:10:14.718Z,62.20
2018-10-06T09:18:20.764Z,62.20
2018-10-06T09:20:50.780Z,62.50
2018-10-06T09:23:29.768Z,62.40
2018-10-06T09:26:07.330Z,62.40
2018-10-06T09:29:10.071Z,62.60
2018-10-06T09:31:43.887Z,62.60
2018-10-06T09:36:58.467Z,62.40
2018-10-06T09:39:44.424Z,62.40
2018-10-06T09:42:25.073Z,62.20
2018-10-06T09:51:04.912Z,62.20
2018-10-06T09:53:51.242Z,62.00
2018-10-06T10:05:18.261Z,62.50
2018-10-06T10:14:40.528Z,62.50
2018-10-06T10:24:01.227Z,62.50
2018-10-06T10:26:33.215Z,62.60
2018-10-06T10:29:09.492Z,62.40
2018-10-06T10:31:51.931Z,62.60
2018-10-06T10:34:23.389Z,62.70
2018-10-06T10:36:53.513Z,62.60
2018-10-06T10:39:22.738Z,62.40
2018-10-06T10:41:55.382Z,62.30
2018-10-06T10:44:25.680Z,62.30
2018-10-06T10:46:56.933Z,62.10
2018-10-06T10:49:30.535Z,62.00
2018-10-06T10:51:59.806Z,62.20
2018-10-06T10:54:35.960Z,62.20
2018-10-06T10:59:54.739Z,62.20
2018-10-06T11:02:26.061Z,62.20
2018-10-06T11:04:55.248Z,62.40
2018-10-06T11:07:24.536Z,62.60
2018-10-06T11:09:53.434Z,62.60
2018-10-06T11:12:23.980Z,63.30
2018-10-06T11:14:52.427Z,62.80
2018-10-06T11:17:21.440Z,62.70
2018-10-06T11:20:01.508Z,62.70
2018-10-06T11:22:36.833Z,62.60
2018-10-06T11:25:05.498Z,62.60
2018-10-06T11:27:35.769Z,62.70
2018-10-06T11:30:09.345Z,62.70
2018-10-06T14:59:26.955Z,61.40
2018-10-06T15:02:03.564Z,61.40
2018-10-06T15:25:13.060Z,62.50
2018-10-06T15:27:54.722Z,62.50
2018-10-06T15:30:34.525Z,62.60
2018-10-06T15:33:11.787Z,62.60
2018-10-06T15:35:46.216Z,62.70
2018-10-06T15:38:17.397Z,62.70
2018-10-06T15:40:48.780Z,62.70
2018-10-06T15:43:20.114Z,62.50
2018-10-06T15:45:50.379Z,62.60
2018-10-06T15:54:34.141Z,62.70
2018-10-06T15:57:05.341Z,62.60
2018-10-06T15:59:36.001Z,62.60
2018-10-06T16:02:07.243Z,62.80
2018-10-06T16:04:38.035Z,63.10
2018-10-06T16:07:08.968Z,63.50
2018-10-06T16:09:43.802Z,64.00
2018-10-06T16:15:02.188Z,64.60
2018-10-06T16:17:31.750Z,64.90
2018-10-06T16:20:02.783Z,65.10
2018-10-06T16:22:37.302Z,65.20
2018-10-06T16:25:07.769Z,65.00
2018-10-06T16:27:38.259Z,64.80
2018-10-06T16:30:10.561Z,64.30
2018-10-06T16:35:23.725Z,64.50
2018-10-06T16:40:52.367Z,64.60
2018-10-06T16:43:22.361Z,64.80
2018-10-06T16:46:00.748Z,65.00
2018-10-06T16:48:44.683Z,65.30
2018-10-06T16:51:13.874Z,65.40
2018-10-06T16:53:43.289Z,65.40
2018-10-06T16:56:13.036Z,65.80
2018-10-06T16:58:53.454Z,65.00
2018-10-06T17:01:22.333Z,65.00
2018-10-06T17:09:32.595Z,64.70
2018-10-06T17:12:02.422Z,64.50
2018-10-06T17:17:30.439Z,64.20
2018-10-06T17:19:59.907Z,64.00
2018-10-06T17:22:28.996Z,64.00
2018-10-06T17:24:58.982Z,63.90
2018-10-06T17:27:53.601Z,63.80
2018-10-06T17:41:31.858Z,63.00
2018-10-06T17:44:01.664Z,62.80
2018-10-06T17:46:36.832Z,62.80
2018-10-06T17:49:13.840Z,62.80
2018-10-06T17:54:29.913Z,62.80
2018-10-06T17:57:00.722Z,62.90
2018-10-06T17:59:30.300Z,63.10
2018-10-06T18:04:35.412Z,63.20
2018-10-06T18:09:56.956Z,63.40
2018-10-06T18:12:42.300Z,63.50
2018-10-06T18:18:06.085Z,63.70
2018-10-06T18:20:41.694Z,63.70
2018-10-06T18:28:39.571Z,63.10
2018-10-06T18:31:09.495Z,63.00
2018-10-06T18:33:55.984Z,62.90
2018-10-06T18:42:02.733Z,62.60
2018-10-06T18:44:32.536Z,62.40
2018-10-06T18:47:02.785Z,62.30
2018-10-06T18:49:41.257Z,62.30
2018-10-06T18:52:09.761Z,62.40
2018-10-06T18:54:43.471Z,62.40
2018-10-06T18:57:17.616Z,62.40
2018-10-06T18:59:53.922Z,62.30
2018-10-06T19:05:02.411Z,62.20
2018-10-06T19:07:31.428Z,62.10
2018-10-06T19:12:43.852Z,62.10
2018-10-06T19:15:13.102Z,62.20
2018-10-06T19:17:51.695Z,62.30
2018-10-06T19:20:24.956Z,62.30
2018-10-06T19:22:54.372Z,62.20
2018-10-06T19:25:27.599Z,62.20
2018-10-06T19:28:01.979Z,62.30
2018-10-06T19:30:39.209Z,62.30
2018-10-06T19:33:11.584Z,62.30
2018-10-06T19:35:43.835Z,62.30
2018-10-06T19:38:13.363Z,62.30
2018-10-06T19:40:44.648Z,62.30
2018-10-06T19:43:16.582Z,62.40
2018-10-06T19:45:47.722Z,62.40
2018-10-06T19:48:17.783Z,62.50
2018-10-06T19:50:50.737Z,62.80
2018-10-06T19:53:20.044Z,63.00
2018-10-06T19:55:51.135Z,63.20
2018-10-06T19:58:21.312Z,63.60
2018-10-06T20:00:53.679Z,63.80
2018-10-06T20:06:13.062Z,64.10
2018-10-06T20:08:47.192Z,64.20
2018-10-06T20:11:24.187Z,64.20
2018-10-06T20:13:58.045Z,64.40
2018-10-06T20:16:28.536Z,64.50
2018-10-06T20:18:59.014Z,64.70
2018-10-06T20:21:31.567Z,64.80
2018-10-06T20:24:05.233Z,65.10
2018-10-06T20:29:21.048Z,65.20
2018-10-06T20:31:53.041Z,65.20
2018-10-06T20:34:23.118Z,65.10
2018-10-06T20:36:54.277Z,65.20
2018-10-06T20:39:32.271Z,65.20
2018-10-06T20:42:03.725Z,65.30
2018-10-06T20:44:32.643Z,65.30
2018-10-06T20:47:01.781Z,65.40
2018-10-06T20:49:30.895Z,65.60
2018-10-06T20:52:00.233Z,65.50
2018-10-06T20:54:44.733Z,65.40
2018-10-06T20:57:17.145Z,65.40
2018-10-06T20:59:47.908Z,65.20
2018-10-06T21:02:20.709Z,65.20
2018-10-06T21:04:49.580Z,65.20
2018-10-06T21:07:19.176Z,65.20
2018-10-06T21:09:50.999Z,65.30
2018-10-06T21:12:19.795Z,65.30
2018-10-06T21:14:52.137Z,65.40
2018-10-06T21:17:22.424Z,65.40
2018-10-06T21:19:51.619Z,65.50
2018-10-06T21:22:20.091Z,65.50
2018-10-06T21:24:49.660Z,65.40
2018-10-06T21:27:18.964Z,65.60
2018-10-06T21:29:48.040Z,65.60
2018-10-06T21:32:19.721Z,65.50
2018-10-06T21:34:51.208Z,65.40
2018-10-06T21:37:22.540Z,65.30
2018-10-06T21:39:57.992Z,65.30
2018-10-06T21:42:32.343Z,65.20
2018-10-06T21:47:54.035Z,64.90
2018-10-06T21:50:50.805Z,64.80
2018-10-06T21:53:32.915Z,64.70
2018-10-06T21:56:02.980Z,64.70
2018-10-06T21:58:34.655Z,64.70
2018-10-06T22:01:13.412Z,64.60
2018-10-06T22:03:45.772Z,64.60
2018-10-06T22:06:15.377Z,64.60
2018-10-06T22:08:53.147Z,64.60
2018-10-06T22:11:24.049Z,64.60
2018-10-06T22:13:58.242Z,64.60
2018-10-06T22:16:28.529Z,64.60
2018-10-06T22:18:58.547Z,64.70
2018-10-06T22:21:27.717Z,65.00
2018-10-06T22:23:59.432Z,65.30
2018-10-06T22:26:28.594Z,65.60
2018-10-06T22:29:01.825Z,65.80
2018-10-06T22:31:31.799Z,66.10
2018-10-06T22:34:01.501Z,66.20
2018-10-06T22:36:32.479Z,66.20
2018-10-06T22:39:03.295Z,66.40
2018-10-06T22:41:32.910Z,66.40
2018-10-06T22:44:01.555Z,66.50
2018-10-06T22:46:32.250Z,66.60
2018-10-06T22:49:01.479Z,66.60
2018-10-06T22:51:30.855Z,66.60
2018-10-06T22:53:59.831Z,66.60
2018-10-06T22:56:28.713Z,66.40
2018-10-06T22:59:02.739Z,66.10
2018-10-06T23:01:33.174Z,66.80
2018-10-06T23:04:04.485Z,66.40
2018-10-06T23:06:34.939Z,66.70
2018-10-06T23:09:07.391Z,67.10
2018-10-06T23:11:37.307Z,67.30
2018-10-06T23:14:06.155Z,67.10
2018-10-06T23:16:35.639Z,67.00
2018-10-06T23:19:06.925Z,66.90
2018-10-06T23:21:39.284Z,66.80
2018-10-06T23:24:08.265Z,66.80
2018-10-06T23:26:37.596Z,67.10
2018-10-06T23:29:16.459Z,68.00
2018-10-06T23:31:45.699Z,68.70
2018-10-06T23:34:15.317Z,69.20
2018-10-06T23:36:44.949Z,69.60
2018-10-06T23:39:14.650Z,69.80
2018-10-06T23:41:46.106Z,70.10
2018-10-06T23:44:15.793Z,70.60
2018-10-06T23:46:46.799Z,70.90
2018-10-06T23:49:17.343Z,71.20
2018-10-06T23:51:51.458Z,71.30
2018-10-06T23:54:21.693Z,71.50
2018-10-06T23:56:50.732Z,71.80
2018-10-06T23:59:30.317Z,72.10
